Terminal Aerodrome Forecast
Issued by NWS

Home | Current Version | Previous Version | Text Only | Print | Product List | Glossary On
Versions: 1 2 3 4 5 6 7 8 9 10 11 12 13 14 15 16 17 18 19 20 21
000
FTUS44 KBMX 182340
TAFTOI
TAF
KTOI 182340Z 1900/1924 VRB03KT P6SM SCT060
     FM190800 12003KT 4SM BR SCT004 SCT050
     FM191000 13003KT 2SM BR BKN002
      TEMPO 1910/1913 1/2SM FG OVC002
     FM191600 16008KT P6SM SCT005 BKN015
     FM191700 17010KT P6SM BKN050=

USA.gov is the U.S. government's official web portal to all federal, state and local government web resources and services.